sensor_id;sensor_type;location;lat;lon;timestamp;P1;durP1;ratioP1;P2;durP2;ratioP2
62616;SDS011;76316;51.190;6.808;2024-02-16T00:01:42;1.48;;;0.80;;
62616;SDS011;76316;51.190;6.808;2024-02-16T00:04:08;1.60;;;1.02;;
62616;SDS011;76316;51.190;6.808;2024-02-16T00:06:33;2.42;;;0.90;;
62616;SDS011;76316;51.190;6.808;2024-02-16T00:08:59;1.90;;;1.00;;
62616;SDS011;76316;51.190;6.808;2024-02-16T00:11:25;1.75;;;0.95;;
62616;SDS011;76316;51.190;6.808;2024-02-16T00:13:51;1.48;;;0.80;;
62616;SDS011;76316;51.190;6.808;2024-02-16T00:16:16;0.90;;;0.70;;
62616;SDS011;76316;51.190;6.808;2024-02-16T00:18:43;1.50;;;0.70;;
62616;SDS011;76316;51.190;6.808;2024-02-16T00:21:08;3.28;;;0.80;;
62616;SDS011;76316;51.190;6.808;2024-02-16T00:23:33;0.63;;;0.63;;
62616;SDS011;76316;51.190;6.808;2024-02-16T00:25:59;0.82;;;0.80;;
62616;SDS011;76316;51.190;6.808;2024-02-16T00:28:26;1.83;;;0.90;;
62616;SDS011;76316;51.190;6.808;2024-02-16T00:30:52;1.60;;;0.93;;
62616;SDS011;76316;51.190;6.808;2024-02-16T00:33:17;1.42;;;0.85;;
62616;SDS011;76316;51.190;6.808;2024-02-16T00:35:43;0.90;;;0.70;;
62616;SDS011;76316;51.190;6.808;2024-02-16T00:38:09;1.00;;;0.80;;
62616;SDS011;76316;51.190;6.808;2024-02-16T00:40:35;0.90;;;0.70;;
62616;SDS011;76316;51.190;6.808;2024-02-16T00:43:00;0.88;;;0.65;;
62616;SDS011;76316;51.190;6.808;2024-02-16T00:45:26;1.05;;;0.70;;
62616;SDS011;76316;51.190;6.808;2024-02-16T00:47:51;2.75;;;1.00;;
62616;SDS011;76316;51.190;6.808;2024-02-16T00:50:17;1.27;;;0.80;;
62616;SDS011;76316;51.190;6.808;2024-02-16T00:52:43;0.65;;;0.60;;
62616;SDS011;76316;51.190;6.808;2024-02-16T00:55:10;1.52;;;0.77;;
62616;SDS011;76316;51.190;6.808;2024-02-16T00:57:35;0.90;;;0.70;;
62616;SDS011;76316;51.190;6.808;2024-02-16T01:00:01;2.67;;;0.82;;
62616;SDS011;76316;51.190;6.808;2024-02-16T01:02:28;0.85;;;0.63;;
62616;SDS011;76316;51.190;6.808;2024-02-16T01:04:54;1.17;;;0.90;;
62616;SDS011;76316;51.190;6.808;2024-02-16T01:07:23;3.35;;;0.75;;
62616;SDS011;76316;51.190;6.808;2024-02-16T01:09:48;1.40;;;0.80;;
62616;SDS011;76316;51.190;6.808;2024-02-16T01:12:13;1.10;;;0.68;;
62616;SDS011;76316;51.190;6.808;2024-02-16T01:14:39;0.88;;;0.70;;
62616;SDS011;76316;51.190;6.808;2024-02-16T01:17:04;1.67;;;1.00;;
62616;SDS011;76316;51.190;6.808;2024-02-16T01:19:30;0.70;;;0.70;;
62616;SDS011;76316;51.190;6.808;2024-02-16T01:21:55;2.60;;;0.70;;
62616;SDS011;76316;51.190;6.808;2024-02-16T01:24:22;1.27;;;0.80;;
62616;SDS011;76316;51.190;6.808;2024-02-16T01:26:49;1.00;;;0.60;;
62616;SDS011;76316;51.190;6.808;2024-02-16T01:29:14;2.25;;;0.70;;
62616;SDS011;76316;51.190;6.808;2024-02-16T01:31:40;1.17;;;0.60;;
62616;SDS011;76316;51.190;6.808;2024-02-16T01:34:05;0.75;;;0.60;;
62616;SDS011;76316;51.190;6.808;2024-02-16T01:36:30;1.45;;;0.90;;
62616;SDS011;76316;51.190;6.808;2024-02-16T01:38:56;1.98;;;0.93;;
62616;SDS011;76316;51.190;6.808;2024-02-16T01:41:21;1.02;;;0.75;;
62616;SDS011;76316;51.190;6.808;2024-02-16T01:43:46;2.40;;;0.80;;
62616;SDS011;76316;51.190;6.808;2024-02-16T01:46:12;1.10;;;0.80;;
62616;SDS011;76316;51.190;6.808;2024-02-16T01:48:37;1.42;;;0.70;;
62616;SDS011;76316;51.190;6.808;2024-02-16T01:51:06;0.68;;;0.65;;
62616;SDS011;76316;51.190;6.808;2024-02-16T01:53:34;1.00;;;0.82;;
62616;SDS011;76316;51.190;6.808;2024-02-16T01:56:01;1.10;;;0.90;;
62616;SDS011;76316;51.190;6.808;2024-02-16T01:58:28;0.60;;;0.60;;
62616;SDS011;76316;51.190;6.808;2024-02-16T02:00:53;0.60;;;0.60;;
62616;SDS011;76316;51.190;6.808;2024-02-16T02:03:19;0.70;;;0.60;;
62616;SDS011;76316;51.190;6.808;2024-02-16T02:05:45;2.22;;;0.80;;
62616;SDS011;76316;51.190;6.808;2024-02-16T02:08:12;1.40;;;0.85;;
62616;SDS011;76316;51.190;6.808;2024-02-16T02:10:38;1.00;;;0.70;;
62616;SDS011;76316;51.190;6.808;2024-02-16T02:13:04;1.42;;;0.70;;
62616;SDS011;76316;51.190;6.808;2024-02-16T02:15:29;1.45;;;0.80;;
62616;SDS011;76316;51.190;6.808;2024-02-16T02:17:55;2.28;;;0.68;;
62616;SDS011;76316;51.190;6.808;2024-02-16T02:20:20;1.25;;;0.75;;
62616;SDS011;76316;51.190;6.808;2024-02-16T02:22:45;1.90;;;0.90;;
62616;SDS011;76316;51.190;6.808;2024-02-16T02:25:11;0.95;;;0.80;;
62616;SDS011;76316;51.190;6.808;2024-02-16T02:27:39;1.00;;;0.70;;
62616;SDS011;76316;51.190;6.808;2024-02-16T02:30:05;3.75;;;0.80;;
62616;SDS011;76316;51.190;6.808;2024-02-16T02:32:31;1.25;;;0.77;;
62616;SDS011;76316;51.190;6.808;2024-02-16T02:34:57;1.63;;;0.70;;
62616;SDS011;76316;51.190;6.808;2024-02-16T02:37:23;1.00;;;0.75;;
62616;SDS011;76316;51.190;6.808;2024-02-16T02:39:48;0.65;;;0.60;;
62616;SDS011;76316;51.190;6.808;2024-02-16T02:42:13;0.90;;;0.60;;
62616;SDS011;76316;51.190;6.808;2024-02-16T02:44:40;1.33;;;0.80;;
62616;SDS011;76316;51.190;6.808;2024-02-16T02:47:05;0.68;;;0.60;;
62616;SDS011;76316;51.190;6.808;2024-02-16T02:49:31;0.55;;;0.50;;
62616;SDS011;76316;51.190;6.808;2024-02-16T02:51:59;0.77;;;0.70;;
62616;SDS011;76316;51.190;6.808;2024-02-16T02:54:25;0.50;;;0.50;;
62616;SDS011;76316;51.190;6.808;2024-02-16T02:56:51;1.35;;;0.85;;
62616;SDS011;76316;51.190;6.808;2024-02-16T02:59:16;0.68;;;0.50;;
62616;SDS011;76316;51.190;6.808;2024-02-16T03:01:41;0.65;;;0.60;;
62616;SDS011;76316;51.190;6.808;2024-02-16T03:04:07;0.95;;;0.80;;
62616;SDS011;76316;51.190;6.808;2024-02-16T03:06:32;0.60;;;0.60;;
62616;SDS011;76316;51.190;6.808;2024-02-16T03:08:58;0.80;;;0.80;;
62616;SDS011;76316;51.190;6.808;2024-02-16T03:11:23;1.55;;;0.82;;
62616;SDS011;76316;51.190;6.808;2024-02-16T03:13:48;0.68;;;0.50;;
62616;SDS011;76316;51.190;6.808;2024-02-16T03:16:14;1.27;;;0.80;;
62616;SDS011;76316;51.190;6.808;2024-02-16T03:18:39;3.25;;;0.80;;
62616;SDS011;76316;51.190;6.808;2024-02-16T03:21:05;0.70;;;0.70;;
62616;SDS011;76316;51.190;6.808;2024-02-16T03:23:30;0.68;;;0.60;;
62616;SDS011;76316;51.190;6.808;2024-02-16T03:25:56;1.52;;;0.80;;
62616;SDS011;76316;51.190;6.808;2024-02-16T03:28:21;0.55;;;0.55;;
62616;SDS011;76316;51.190;6.808;2024-02-16T03:30:47;0.93;;;0.57;;
62616;SDS011;76316;51.190;6.808;2024-02-16T03:33:12;1.77;;;0.60;;
62616;SDS011;76316;51.190;6.808;2024-02-16T03:35:41;0.93;;;0.80;;
62616;SDS011;76316;51.190;6.808;2024-02-16T03:38:06;0.93;;;0.80;;
62616;SDS011;76316;51.190;6.808;2024-02-16T03:40:32;1.13;;;0.80;;
62616;SDS011;76316;51.190;6.808;2024-02-16T03:42:58;0.70;;;0.50;;
62616;SDS011;76316;51.190;6.808;2024-02-16T03:45:24;1.80;;;0.70;;
62616;SDS011;76316;51.190;6.808;2024-02-16T03:47:51;0.70;;;0.70;;
62616;SDS011;76316;51.190;6.808;2024-02-16T03:50:17;0.70;;;0.60;;
62616;SDS011;76316;51.190;6.808;2024-02-16T03:52:44;1.20;;;0.60;;
62616;SDS011;76316;51.190;6.808;2024-02-16T03:55:10;1.85;;;0.85;;
62616;SDS011;76316;51.190;6.808;2024-02-16T03:57:37;1.05;;;0.60;;
62616;SDS011;76316;51.190;6.808;2024-02-16T04:00:04;0.88;;;0.57;;
62616;SDS011;76316;51.190;6.808;2024-02-16T04:02:31;0.70;;;0.70;;
62616;SDS011;76316;51.190;6.808;2024-02-16T04:04:57;1.00;;;0.70;;
62616;SDS011;76316;51.190;6.808;2024-02-16T04:07:22;0.70;;;0.70;;
62616;SDS011;76316;51.190;6.808;2024-02-16T04:09:48;1.20;;;0.90;;
62616;SDS011;76316;51.190;6.808;2024-02-16T04:12:14;1.67;;;0.80;;
62616;SDS011;76316;51.190;6.808;2024-02-16T04:14:39;2.63;;;0.70;;
62616;SDS011;76316;51.190;6.808;2024-02-16T04:17:06;0.80;;;0.70;;
62616;SDS011;76316;51.190;6.808;2024-02-16T04:19:32;0.40;;;0.40;;
62616;SDS011;76316;51.190;6.808;2024-02-16T04:21:57;0.90;;;0.80;;
62616;SDS011;76316;51.190;6.808;2024-02-16T04:24:23;1.00;;;0.82;;
62616;SDS011;76316;51.190;6.808;2024-02-16T04:26:48;1.35;;;0.73;;
62616;SDS011;76316;51.190;6.808;2024-02-16T04:29:14;2.22;;;0.90;;
62616;SDS011;76316;51.190;6.808;2024-02-16T04:31:39;2.22;;;0.80;;
62616;SDS011;76316;51.190;6.808;2024-02-16T04:34:07;2.35;;;0.65;;
62616;SDS011;76316;51.190;6.808;2024-02-16T04:36:33;0.60;;;0.60;;
62616;SDS011;76316;51.190;6.808;2024-02-16T04:38:58;1.25;;;0.80;;
62616;SDS011;76316;51.190;6.808;2024-02-16T04:41:23;0.93;;;0.77;;
62616;SDS011;76316;51.190;6.808;2024-02-16T04:43:49;1.35;;;0.73;;
62616;SDS011;76316;51.190;6.808;2024-02-16T04:46:15;1.52;;;0.85;;
62616;SDS011;76316;51.190;6.808;2024-02-16T04:48:41;1.25;;;1.00;;
62616;SDS011;76316;51.190;6.808;2024-02-16T04:51:07;0.93;;;0.70;;
62616;SDS011;76316;51.190;6.808;2024-02-16T04:53:33;2.70;;;0.73;;
62616;SDS011;76316;51.190;6.808;2024-02-16T04:55:58;0.73;;;0.70;;
62616;SDS011;76316;51.190;6.808;2024-02-16T04:58:23;2.15;;;0.85;;
62616;SDS011;76316;51.190;6.808;2024-02-16T05:00:49;0.77;;;0.70;;
62616;SDS011;76316;51.190;6.808;2024-02-16T05:03:14;1.08;;;0.75;;
62616;SDS011;76316;51.190;6.808;2024-02-16T05:05:40;0.63;;;0.60;;
62616;SDS011;76316;51.190;6.808;2024-02-16T05:08:06;1.65;;;0.77;;
62616;SDS011;76316;51.190;6.808;2024-02-16T05:10:31;1.17;;;0.80;;
62616;SDS011;76316;51.190;6.808;2024-02-16T05:12:57;0.60;;;0.60;;
62616;SDS011;76316;51.190;6.808;2024-02-16T05:15:23;0.82;;;0.70;;
62616;SDS011;76316;51.190;6.808;2024-02-16T05:17:49;1.95;;;0.63;;
62616;SDS011;76316;51.190;6.808;2024-02-16T05:20:14;0.98;;;0.73;;
62616;SDS011;76316;51.190;6.808;2024-02-16T05:22:43;0.70;;;0.60;;
62616;SDS011;76316;51.190;6.808;2024-02-16T05:25:14;1.17;;;0.70;;
62616;SDS011;76316;51.190;6.808;2024-02-16T05:27:41;1.13;;;0.70;;
62616;SDS011;76316;51.190;6.808;2024-02-16T05:30:08;0.60;;;0.60;;
62616;SDS011;76316;51.190;6.808;2024-02-16T05:32:37;0.95;;;0.70;;
62616;SDS011;76316;51.190;6.808;2024-02-16T05:35:03;0.75;;;0.70;;
62616;SDS011;76316;51.190;6.808;2024-02-16T05:37:36;1.00;;;0.70;;
62616;SDS011;76316;51.190;6.808;2024-02-16T05:40:10;2.42;;;0.88;;
62616;SDS011;76316;51.190;6.808;2024-02-16T05:42:55;1.15;;;0.75;;
62616;SDS011;76316;51.190;6.808;2024-02-16T05:45:25;1.88;;;0.80;;
62616;SDS011;76316;51.190;6.808;2024-02-16T05:47:54;0.82;;;0.70;;
62616;SDS011;76316;51.190;6.808;2024-02-16T05:50:20;1.05;;;0.70;;
62616;SDS011;76316;51.190;6.808;2024-02-16T05:52:47;1.15;;;0.70;;
62616;SDS011;76316;51.190;6.808;2024-02-16T05:55:12;1.30;;;0.73;;
62616;SDS011;76316;51.190;6.808;2024-02-16T05:57:38;1.05;;;0.80;;
62616;SDS011;76316;51.190;6.808;2024-02-16T06:00:04;1.02;;;0.57;;
62616;SDS011;76316;51.190;6.808;2024-02-16T06:02:32;0.90;;;0.50;;
62616;SDS011;76316;51.190;6.808;2024-02-16T06:04:58;1.88;;;0.73;;
62616;SDS011;76316;51.190;6.808;2024-02-16T06:07:25;0.73;;;0.60;;
62616;SDS011;76316;51.190;6.808;2024-02-16T06:09:50;0.75;;;0.75;;
62616;SDS011;76316;51.190;6.808;2024-02-16T06:12:16;1.25;;;0.73;;
62616;SDS011;76316;51.190;6.808;2024-02-16T06:14:43;2.75;;;0.60;;
62616;SDS011;76316;51.190;6.808;2024-02-16T06:17:08;1.98;;;0.80;;
62616;SDS011;76316;51.190;6.808;2024-02-16T06:19:34;5.15;;;0.70;;
62616;SDS011;76316;51.190;6.808;2024-02-16T06:22:00;7.28;;;0.70;;
62616;SDS011;76316;51.190;6.808;2024-02-16T06:24:26;1.52;;;0.85;;
62616;SDS011;76316;51.190;6.808;2024-02-16T06:26:52;2.67;;;0.85;;
62616;SDS011;76316;51.190;6.808;2024-02-16T06:29:18;7.95;;;0.98;;
62616;SDS011;76316;51.190;6.808;2024-02-16T06:31:46;10.70;;;1.35;;
62616;SDS011;76316;51.190;6.808;2024-02-16T06:34:13;3.45;;;1.02;;
62616;SDS011;76316;51.190;6.808;2024-02-16T06:36:39;4.18;;;0.90;;
62616;SDS011;76316;51.190;6.808;2024-02-16T06:39:04;6.72;;;1.50;;
62616;SDS011;76316;51.190;6.808;2024-02-16T06:41:30;6.70;;;0.98;;
62616;SDS011;76316;51.190;6.808;2024-02-16T06:43:55;2.60;;;1.13;;
62616;SDS011;76316;51.190;6.808;2024-02-16T06:46:21;7.55;;;1.40;;
62616;SDS011;76316;51.190;6.808;2024-02-16T06:48:47;5.45;;;1.48;;
62616;SDS011;76316;51.190;6.808;2024-02-16T06:51:12;2.35;;;0.95;;
62616;SDS011;76316;51.190;6.808;2024-02-16T06:53:38;12.85;;;1.50;;
62616;SDS011;76316;51.190;6.808;2024-02-16T06:56:03;5.35;;;1.10;;
62616;SDS011;76316;51.190;6.808;2024-02-16T06:58:29;8.20;;;1.20;;
62616;SDS011;76316;51.190;6.808;2024-02-16T07:00:55;3.97;;;1.05;;
62616;SDS011;76316;51.190;6.808;2024-02-16T07:03:20;3.58;;;1.00;;
62616;SDS011;76316;51.190;6.808;2024-02-16T07:05:45;5.05;;;1.08;;
62616;SDS011;76316;51.190;6.808;2024-02-16T07:08:11;3.13;;;1.10;;
62616;SDS011;76316;51.190;6.808;2024-02-16T07:10:36;4.30;;;1.27;;
62616;SDS011;76316;51.190;6.808;2024-02-16T07:13:02;4.47;;;1.30;;
62616;SDS011;76316;51.190;6.808;2024-02-16T07:15:28;9.70;;;1.30;;
62616;SDS011;76316;51.190;6.808;2024-02-16T07:17:54;2.55;;;1.10;;
62616;SDS011;76316;51.190;6.808;2024-02-16T07:20:19;5.47;;;1.50;;
62616;SDS011;76316;51.190;6.808;2024-02-16T07:22:45;3.20;;;1.33;;
62616;SDS011;76316;51.190;6.808;2024-02-16T07:25:15;4.78;;;1.02;;
62616;SDS011;76316;51.190;6.808;2024-02-16T07:27:40;2.22;;;1.00;;
62616;SDS011;76316;51.190;6.808;2024-02-16T07:30:06;4.03;;;1.27;;
62616;SDS011;76316;51.190;6.808;2024-02-16T07:32:32;3.47;;;1.25;;
62616;SDS011;76316;51.190;6.808;2024-02-16T07:34:58;8.75;;;1.33;;
62616;SDS011;76316;51.190;6.808;2024-02-16T07:37:24;4.18;;;1.20;;
62616;SDS011;76316;51.190;6.808;2024-02-16T07:39:50;5.05;;;1.20;;
62616;SDS011;76316;51.190;6.808;2024-02-16T07:42:16;1.38;;;1.02;;
62616;SDS011;76316;51.190;6.808;2024-02-16T07:44:41;2.20;;;1.10;;
62616;SDS011;76316;51.190;6.808;2024-02-16T07:47:07;4.25;;;1.35;;
62616;SDS011;76316;51.190;6.808;2024-02-16T07:49:32;2.25;;;1.10;;
62616;SDS011;76316;51.190;6.808;2024-02-16T07:51:57;3.33;;;1.27;;
62616;SDS011;76316;51.190;6.808;2024-02-16T07:54:23;3.78;;;1.05;;
62616;SDS011;76316;51.190;6.808;2024-02-16T07:56:48;2.58;;;1.25;;
62616;SDS011;76316;51.190;6.808;2024-02-16T07:59:14;2.72;;;1.40;;
62616;SDS011;76316;51.190;6.808;2024-02-16T08:01:40;1.50;;;0.90;;
62616;SDS011;76316;51.190;6.808;2024-02-16T08:04:05;2.30;;;1.10;;
62616;SDS011;76316;51.190;6.808;2024-02-16T08:06:31;2.40;;;1.10;;
62616;SDS011;76316;51.190;6.808;2024-02-16T08:08:56;2.10;;;1.00;;
62616;SDS011;76316;51.190;6.808;2024-02-16T08:11:22;1.65;;;0.80;;
62616;SDS011;76316;51.190;6.808;2024-02-16T08:13:48;3.53;;;1.15;;
62616;SDS011;76316;51.190;6.808;2024-02-16T08:16:13;1.90;;;1.20;;
62616;SDS011;76316;51.190;6.808;2024-02-16T08:18:39;5.18;;;1.02;;
62616;SDS011;76316;51.190;6.808;2024-02-16T08:21:04;2.08;;;1.00;;
62616;SDS011;76316;51.190;6.808;2024-02-16T08:23:29;2.53;;;1.10;;
62616;SDS011;76316;51.190;6.808;2024-02-16T08:25:56;1.83;;;1.15;;
62616;SDS011;76316;51.190;6.808;2024-02-16T08:28:22;1.90;;;1.10;;
62616;SDS011;76316;51.190;6.808;2024-02-16T08:30:48;2.28;;;1.17;;
62616;SDS011;76316;51.190;6.808;2024-02-16T08:33:13;2.92;;;1.25;;
62616;SDS011;76316;51.190;6.808;2024-02-16T08:35:39;6.00;;;1.35;;
62616;SDS011;76316;51.190;6.808;2024-02-16T08:38:04;4.80;;;1.00;;
62616;SDS011;76316;51.190;6.808;2024-02-16T08:40:30;13.68;;;1.35;;
62616;SDS011;76316;51.190;6.808;2024-02-16T08:42:55;1.67;;;0.90;;
62616;SDS011;76316;51.190;6.808;2024-02-16T08:45:21;5.30;;;1.23;;
62616;SDS011;76316;51.190;6.808;2024-02-16T08:47:46;2.35;;;1.08;;
62616;SDS011;76316;51.190;6.808;2024-02-16T08:50:12;2.00;;;0.90;;
62616;SDS011;76316;51.190;6.808;2024-02-16T08:52:38;1.77;;;0.93;;
62616;SDS011;76316;51.190;6.808;2024-02-16T08:55:03;4.93;;;1.48;;
62616;SDS011;76316;51.190;6.808;2024-02-16T08:57:31;2.15;;;1.25;;
62616;SDS011;76316;51.190;6.808;2024-02-16T08:59:57;4.10;;;1.25;;
62616;SDS011;76316;51.190;6.808;2024-02-16T09:02:22;2.50;;;1.10;;
62616;SDS011;76316;51.190;6.808;2024-02-16T09:04:48;1.63;;;0.98;;
62616;SDS011;76316;51.190;6.808;2024-02-16T09:07:13;2.78;;;1.00;;
62616;SDS011;76316;51.190;6.808;2024-02-16T09:09:39;2.35;;;1.10;;
62616;SDS011;76316;51.190;6.808;2024-02-16T09:12:04;1.67;;;1.00;;
62616;SDS011;76316;51.190;6.808;2024-02-16T09:14:30;1.20;;;0.80;;
62616;SDS011;76316;51.190;6.808;2024-02-16T09:16:57;5.35;;;1.50;;
62616;SDS011;76316;51.190;6.808;2024-02-16T09:19:22;1.00;;;0.90;;
62616;SDS011;76316;51.190;6.808;2024-02-16T09:21:48;1.58;;;0.90;;
62616;SDS011;76316;51.190;6.808;2024-02-16T09:24:19;3.50;;;1.05;;
62616;SDS011;76316;51.190;6.808;2024-02-16T09:26:44;2.25;;;1.10;;
62616;SDS011;76316;51.190;6.808;2024-02-16T09:29:11;2.08;;;1.13;;
62616;SDS011;76316;51.190;6.808;2024-02-16T09:31:39;2.50;;;1.02;;
62616;SDS011;76316;51.190;6.808;2024-02-16T09:34:06;2.13;;;1.30;;
62616;SDS011;76316;51.190;6.808;2024-02-16T09:36:32;1.58;;;0.93;;
62616;SDS011;76316;51.190;6.808;2024-02-16T09:38:57;1.75;;;0.85;;
62616;SDS011;76316;51.190;6.808;2024-02-16T09:41:22;1.80;;;1.13;;
62616;SDS011;76316;51.190;6.808;2024-02-16T09:43:48;6.68;;;1.20;;
62616;SDS011;76316;51.190;6.808;2024-02-16T09:46:14;1.63;;;1.02;;
62616;SDS011;76316;51.190;6.808;2024-02-16T09:48:41;3.25;;;1.23;;
62616;SDS011;76316;51.190;6.808;2024-02-16T09:51:13;2.67;;;1.00;;
62616;SDS011;76316;51.190;6.808;2024-02-16T09:53:38;2.25;;;1.10;;
62616;SDS011;76316;51.190;6.808;2024-02-16T09:56:05;2.50;;;1.38;;
62616;SDS011;76316;51.190;6.808;2024-02-16T09:58:33;2.08;;;1.30;;
62616;SDS011;76316;51.190;6.808;2024-02-16T10:01:00;1.80;;;1.00;;
62616;SDS011;76316;51.190;6.808;2024-02-16T10:03:27;5.90;;;1.20;;
62616;SDS011;76316;51.190;6.808;2024-02-16T10:06:07;4.15;;;1.00;;
62616;SDS011;76316;51.190;6.808;2024-02-16T10:08:35;2.13;;;1.02;;
62616;SDS011;76316;51.190;6.808;2024-02-16T10:11:16;2.53;;;1.15;;
62616;SDS011;76316;51.190;6.808;2024-02-16T10:13:53;7.32;;;1.00;;
62616;SDS011;76316;51.190;6.808;2024-02-16T10:16:29;9.15;;;1.30;;
62616;SDS011;76316;51.190;6.808;2024-02-16T10:18:56;4.10;;;1.20;;
62616;SDS011;76316;51.190;6.808;2024-02-16T10:21:29;6.60;;;0.95;;
62616;SDS011;76316;51.190;6.808;2024-02-16T10:23:56;1.67;;;1.10;;
62616;SDS011;76316;51.190;6.808;2024-02-16T10:26:30;4.20;;;1.20;;
62616;SDS011;76316;51.190;6.808;2024-02-16T10:28:56;2.05;;;1.10;;
62616;SDS011;76316;51.190;6.808;2024-02-16T10:31:25;2.83;;;1.20;;
62616;SDS011;76316;51.190;6.808;2024-02-16T10:33:56;4.55;;;1.35;;
62616;SDS011;76316;51.190;6.808;2024-02-16T10:36:24;2.20;;;1.23;;
62616;SDS011;76316;51.190;6.808;2024-02-16T10:38:54;2.53;;;1.00;;
62616;SDS011;76316;51.190;6.808;2024-02-16T10:41:22;4.47;;;1.33;;
62616;SDS011;76316;51.190;6.808;2024-02-16T10:43:55;2.15;;;1.10;;
62616;SDS011;76316;51.190;6.808;2024-02-16T10:46:22;4.60;;;1.27;;
62616;SDS011;76316;51.190;6.808;2024-02-16T10:48:49;2.05;;;1.15;;
62616;SDS011;76316;51.190;6.808;2024-02-16T10:51:15;2.28;;;1.25;;
62616;SDS011;76316;51.190;6.808;2024-02-16T10:53:48;5.88;;;1.42;;
62616;SDS011;76316;51.190;6.808;2024-02-16T10:56:26;1.95;;;1.05;;
62616;SDS011;76316;51.190;6.808;2024-02-16T10:58:53;2.13;;;1.05;;
62616;SDS011;76316;51.190;6.808;2024-02-16T11:01:19;2.75;;;1.27;;
62616;SDS011;76316;51.190;6.808;2024-02-16T11:03:44;4.53;;;1.15;;
62616;SDS011;76316;51.190;6.808;2024-02-16T11:06:17;1.80;;;1.05;;
62616;SDS011;76316;51.190;6.808;2024-02-16T11:08:43;7.20;;;1.20;;
62616;SDS011;76316;51.190;6.808;2024-02-16T11:11:08;3.15;;;1.20;;
62616;SDS011;76316;51.190;6.808;2024-02-16T11:13:37;2.63;;;1.30;;
62616;SDS011;76316;51.190;6.808;2024-02-16T11:16:06;1.45;;;1.10;;
62616;SDS011;76316;51.190;6.808;2024-02-16T11:18:37;2.33;;;1.20;;
62616;SDS011;76316;51.190;6.808;2024-02-16T11:21:11;1.77;;;0.90;;
62616;SDS011;76316;51.190;6.808;2024-02-16T11:23:39;2.15;;;1.15;;
62616;SDS011;76316;51.190;6.808;2024-02-16T11:26:06;1.60;;;0.98;;
62616;SDS011;76316;51.190;6.808;2024-02-16T11:28:40;2.65;;;1.30;;
62616;SDS011;76316;51.190;6.808;2024-02-16T11:31:07;4.00;;;1.20;;
62616;SDS011;76316;51.190;6.808;2024-02-16T11:33:33;5.28;;;1.10;;
62616;SDS011;76316;51.190;6.808;2024-02-16T11:36:00;2.15;;;0.90;;
62616;SDS011;76316;51.190;6.808;2024-02-16T11:38:31;6.45;;;1.30;;
62616;SDS011;76316;51.190;6.808;2024-02-16T11:41:01;3.63;;;1.00;;
62616;SDS011;76316;51.190;6.808;2024-02-16T11:43:35;1.40;;;1.10;;
62616;SDS011;76316;51.190;6.808;2024-02-16T11:46:19;4.15;;;1.25;;
62616;SDS011;76316;51.190;6.808;2024-02-16T11:48:45;2.65;;;1.10;;
62616;SDS011;76316;51.190;6.808;2024-02-16T11:51:14;3.08;;;1.23;;
62616;SDS011;76316;51.190;6.808;2024-02-16T11:53:42;3.60;;;1.10;;
62616;SDS011;76316;51.190;6.808;2024-02-16T11:56:08;1.60;;;0.93;;
62616;SDS011;76316;51.190;6.808;2024-02-16T11:58:33;2.55;;;1.20;;
62616;SDS011;76316;51.190;6.808;2024-02-16T12:00:59;2.20;;;1.20;;
62616;SDS011;76316;51.190;6.808;2024-02-16T12:03:25;10.27;;;2.30;;
62616;SDS011;76316;51.190;6.808;2024-02-16T12:05:56;7.93;;;1.98;;
62616;SDS011;76316;51.190;6.808;2024-02-16T12:08:24;4.82;;;2.60;;
62616;SDS011;76316;51.190;6.808;2024-02-16T12:10:58;4.95;;;2.22;;
62616;SDS011;76316;51.190;6.808;2024-02-16T12:13:24;5.13;;;2.40;;
62616;SDS011;76316;51.190;6.808;2024-02-16T12:15:50;12.15;;;2.80;;
62616;SDS011;76316;51.190;6.808;2024-02-16T12:18:26;7.05;;;2.65;;
62616;SDS011;76316;51.190;6.808;2024-02-16T12:21:05;8.82;;;2.50;;
62616;SDS011;76316;51.190;6.808;2024-02-16T12:23:32;5.10;;;2.58;;
62616;SDS011;76316;51.190;6.808;2024-02-16T12:25:58;5.50;;;2.67;;
62616;SDS011;76316;51.190;6.808;2024-02-16T12:28:25;8.82;;;2.42;;
62616;SDS011;76316;51.190;6.808;2024-02-16T12:30:54;21.17;;;3.03;;
62616;SDS011;76316;51.190;6.808;2024-02-16T12:33:21;12.88;;;2.55;;
62616;SDS011;76316;51.190;6.808;2024-02-16T12:35:50;3.45;;;2.40;;
62616;SDS011;76316;51.190;6.808;2024-02-16T12:38:16;5.32;;;2.40;;
62616;SDS011;76316;51.190;6.808;2024-02-16T12:40:44;4.13;;;2.35;;
62616;SDS011;76316;51.190;6.808;2024-02-16T12:43:12;5.82;;;2.10;;
62616;SDS011;76316;51.190;6.808;2024-02-16T12:45:38;4.70;;;2.10;;
62616;SDS011;76316;51.190;6.808;2024-02-16T12:48:07;5.05;;;2.28;;
62616;SDS011;76316;51.190;6.808;2024-02-16T12:50:35;7.38;;;2.30;;
62616;SDS011;76316;51.190;6.808;2024-02-16T12:53:04;9.88;;;2.58;;
62616;SDS011;76316;51.190;6.808;2024-02-16T12:55:29;4.55;;;2.10;;
62616;SDS011;76316;51.190;6.808;2024-02-16T12:57:55;10.48;;;2.15;;
62616;SDS011;76316;51.190;6.808;2024-02-16T13:00:21;8.82;;;2.22;;
62616;SDS011;76316;51.190;6.808;2024-02-16T13:02:47;6.90;;;2.30;;
62616;SDS011;76316;51.190;6.808;2024-02-16T13:05:13;4.75;;;2.08;;
62616;SDS011;76316;51.190;6.808;2024-02-16T13:07:38;8.48;;;2.25;;
62616;SDS011;76316;51.190;6.808;2024-02-16T13:10:06;12.48;;;2.05;;
62616;SDS011;76316;51.190;6.808;2024-02-16T13:12:33;11.93;;;2.05;;
62616;SDS011;76316;51.190;6.808;2024-02-16T13:14:59;9.85;;;2.28;;
62616;SDS011;76316;51.190;6.808;2024-02-16T13:17:26;4.97;;;1.80;;
62616;SDS011;76316;51.190;6.808;2024-02-16T13:19:52;8.80;;;1.85;;
62616;SDS011;76316;51.190;6.808;2024-02-16T13:22:17;4.75;;;1.77;;
62616;SDS011;76316;51.190;6.808;2024-02-16T13:24:43;5.20;;;2.15;;
62616;SDS011;76316;51.190;6.808;2024-02-16T13:27:08;4.53;;;1.73;;
62616;SDS011;76316;51.190;6.808;2024-02-16T13:29:34;7.95;;;2.13;;
62616;SDS011;76316;51.190;6.808;2024-02-16T13:32:00;7.75;;;1.90;;
62616;SDS011;76316;51.190;6.808;2024-02-16T13:34:26;8.23;;;2.22;;
62616;SDS011;76316;51.190;6.808;2024-02-16T13:36:52;12.15;;;1.90;;
62616;SDS011;76316;51.190;6.808;2024-02-16T13:39:18;5.75;;;2.28;;
62616;SDS011;76316;51.190;6.808;2024-02-16T13:41:44;5.18;;;1.80;;
62616;SDS011;76316;51.190;6.808;2024-02-16T13:44:12;5.35;;;1.65;;
62616;SDS011;76316;51.190;6.808;2024-02-16T13:46:38;7.18;;;2.17;;
62616;SDS011;76316;51.190;6.808;2024-02-16T13:49:03;6.50;;;2.22;;
62616;SDS011;76316;51.190;6.808;2024-02-16T13:51:28;5.43;;;1.95;;
62616;SDS011;76316;51.190;6.808;2024-02-16T13:53:54;4.13;;;1.73;;
62616;SDS011;76316;51.190;6.808;2024-02-16T13:56:19;3.25;;;1.75;;
62616;SDS011;76316;51.190;6.808;2024-02-16T13:58:45;3.55;;;1.80;;
62616;SDS011;76316;51.190;6.808;2024-02-16T14:01:12;8.85;;;1.92;;
62616;SDS011;76316;51.190;6.808;2024-02-16T14:03:38;5.72;;;1.77;;
62616;SDS011;76316;51.190;6.808;2024-02-16T14:06:04;4.88;;;1.80;;
62616;SDS011;76316;51.190;6.808;2024-02-16T14:08:31;4.00;;;1.70;;
62616;SDS011;76316;51.190;6.808;2024-02-16T14:10:57;7.18;;;1.90;;
62616;SDS011;76316;51.190;6.808;2024-02-16T14:13:22;8.27;;;1.95;;
62616;SDS011;76316;51.190;6.808;2024-02-16T14:15:49;5.93;;;1.83;;
62616;SDS011;76316;51.190;6.808;2024-02-16T14:18:15;6.22;;;1.80;;
62616;SDS011;76316;51.190;6.808;2024-02-16T14:20:41;5.25;;;2.20;;
62616;SDS011;76316;51.190;6.808;2024-02-16T14:23:06;11.40;;;2.50;;
62616;SDS011;76316;51.190;6.808;2024-02-16T14:25:34;17.77;;;2.78;;
62616;SDS011;76316;51.190;6.808;2024-02-16T14:28:02;10.20;;;2.38;;
62616;SDS011;76316;51.190;6.808;2024-02-16T14:30:28;7.57;;;2.40;;
62616;SDS011;76316;51.190;6.808;2024-02-16T14:32:53;5.85;;;2.80;;
62616;SDS011;76316;51.190;6.808;2024-02-16T14:35:19;11.35;;;2.80;;
62616;SDS011;76316;51.190;6.808;2024-02-16T14:37:44;8.07;;;2.30;;
62616;SDS011;76316;51.190;6.808;2024-02-16T14:40:09;9.25;;;2.58;;
62616;SDS011;76316;51.190;6.808;2024-02-16T14:42:36;5.97;;;2.58;;
62616;SDS011;76316;51.190;6.808;2024-02-16T14:45:03;7.82;;;2.72;;